Terminal Aerodrome Forecast
Issued by NWS Binghamton, NY

Home | Current Version | Previous Version | Text Only | Print | Product List | Glossary On
Versions: 1 2 3 4 5 6 7 8 9 10 11 12 13 14 15 16 17 18 19 20 21 22 23 24 25
000
FTUS41 KBGM 031444 AAB
TAFBGM
TAF AMD
KBGM 031444Z 0315/0412 31013G22KT P6SM BKN025
      TEMPO 0315/0317 2SM -SHSN BKN012
     FM040000 31010KT P6SM BKN025=

USA.gov is the U.S. government's official web portal to all federal, state and local government web resources and services.